sensor_id;sensor_type;location;lat;lon;timestamp;pressure;altitude;pressure_sealevel;temperature;humidity
61119;BME280;51448;51.660;5.824;2023-09-30T00:01:00;102358.09;;;12.64;100.00
61119;BME280;51448;51.660;5.824;2023-09-30T00:03:28;102365.09;;;12.65;100.00
61119;BME280;51448;51.660;5.824;2023-09-30T00:05:55;102372.16;;;12.66;100.00
61119;BME280;51448;51.660;5.824;2023-09-30T00:08:23;102380.94;;;12.68;100.00
61119;BME280;51448;51.660;5.824;2023-09-30T00:10:50;102382.66;;;12.69;100.00
61119;BME280;51448;51.660;5.824;2023-09-30T00:13:20;102377.34;;;12.72;100.00
61119;BME280;51448;51.660;5.824;2023-09-30T00:15:48;102372.94;;;12.71;100.00
61119;BME280;51448;51.660;5.824;2023-09-30T00:18:16;102382.63;;;12.72;100.00
61119;BME280;51448;51.660;5.824;2023-09-30T00:20:44;102386.13;;;12.73;100.00
61119;BME280;51448;51.660;5.824;2023-09-30T00:23:11;102389.66;;;12.73;100.00
61119;BME280;51448;51.660;5.824;2023-09-30T00:25:39;102393.16;;;12.75;100.00
61119;BME280;51448;51.660;5.824;2023-09-30T00:28:06;102394.03;;;12.76;100.00
61119;BME280;51448;51.660;5.824;2023-09-30T00:30:34;102394.06;;;12.74;100.00
61119;BME280;51448;51.660;5.824;2023-09-30T00:33:02;102380.84;;;12.76;100.00
61119;BME280;51448;51.660;5.824;2023-09-30T00:35:32;102381.72;;;12.76;100.00
61119;BME280;51448;51.660;5.824;2023-09-30T00:38:00;102386.13;;;12.74;100.00
61119;BME280;51448;51.660;5.824;2023-09-30T00:40:27;102387.00;;;12.76;100.00
61119;BME280;51448;51.660;5.824;2023-09-30T00:42:55;102386.13;;;12.76;100.00
61119;BME280;51448;51.660;5.824;2023-09-30T00:45:23;102392.28;;;12.76;100.00
61119;BME280;51448;51.660;5.824;2023-09-30T00:47:50;102401.91;;;12.77;100.00
61119;BME280;51448;51.660;5.824;2023-09-30T00:50:22;102412.47;;;12.77;100.00
61119;BME280;51448;51.660;5.824;2023-09-30T00:52:50;102419.59;;;12.74;100.00
61119;BME280;51448;51.660;5.824;2023-09-30T00:55:19;102411.66;;;12.74;100.00
61119;BME280;51448;51.660;5.824;2023-09-30T00:57:47;102393.19;;;12.72;100.00
61119;BME280;51448;51.660;5.824;2023-09-30T01:00:15;102398.47;;;12.72;100.00
61119;BME280;51448;51.660;5.824;2023-09-30T01:02:44;102396.72;;;12.71;100.00
61119;BME280;51448;51.660;5.824;2023-09-30T01:05:12;102394.97;;;12.70;100.00
61119;BME280;51448;51.660;5.824;2023-09-30T01:07:39;102400.28;;;12.68;100.00
61119;BME280;51448;51.660;5.824;2023-09-30T01:10:07;102399.41;;;12.68;100.00
61119;BME280;51448;51.660;5.824;2023-09-30T01:12:35;102400.31;;;12.65;100.00
61119;BME280;51448;51.660;5.824;2023-09-30T01:15:03;102411.75;;;12.64;100.00
61119;BME280;51448;51.660;5.824;2023-09-30T01:17:35;102417.94;;;12.62;100.00
61119;BME280;51448;51.660;5.824;2023-09-30T01:20:03;102417.97;;;12.60;100.00
61119;BME280;51448;51.660;5.824;2023-09-30T01:22:34;102416.22;;;12.59;100.00
61119;BME280;51448;51.660;5.824;2023-09-30T01:25:02;102411.81;;;12.58;100.00
61119;BME280;51448;51.660;5.824;2023-09-30T01:27:29;102420.59;;;12.59;100.00
61119;BME280;51448;51.660;5.824;2023-09-30T01:29:57;102419.75;;;12.57;100.00
61119;BME280;51448;51.660;5.824;2023-09-30T01:32:25;102433.00;;;12.55;100.00
61119;BME280;51448;51.660;5.824;2023-09-30T01:34:54;102447.94;;;12.55;100.00
61119;BME280;51448;51.660;5.824;2023-09-30T01:37:22;102447.97;;;12.52;100.00
61119;BME280;51448;51.660;5.824;2023-09-30T01:39:49;102440.06;;;12.50;100.00
61119;BME280;51448;51.660;5.824;2023-09-30T01:42:17;102449.75;;;12.48;100.00
61119;BME280;51448;51.660;5.824;2023-09-30T01:44:45;102444.50;;;12.46;100.00
61119;BME280;51448;51.660;5.824;2023-09-30T01:47:13;102441.91;;;12.45;100.00
61119;BME280;51448;51.660;5.824;2023-09-30T01:49:40;102443.63;;;12.44;100.00
61119;BME280;51448;51.660;5.824;2023-09-30T01:52:08;102437.50;;;12.42;100.00
61119;BME280;51448;51.660;5.824;2023-09-30T01:54:35;102429.63;;;12.41;100.00
61119;BME280;51448;51.660;5.824;2023-09-30T01:57:03;102416.44;;;12.38;100.00
61119;BME280;51448;51.660;5.824;2023-09-30T01:59:31;102417.34;;;12.37;100.00
61119;BME280;51448;51.660;5.824;2023-09-30T02:01:58;102424.41;;;12.33;100.00
61119;BME280;51448;51.660;5.824;2023-09-30T02:04:26;102417.38;;;12.32;100.00
61119;BME280;51448;51.660;5.824;2023-09-30T02:06:54;102413.88;;;12.32;100.00
61119;BME280;51448;51.660;5.824;2023-09-30T02:09:21;102416.50;;;12.30;100.00
61119;BME280;51448;51.660;5.824;2023-09-30T02:11:49;102414.78;;;12.29;100.00
61119;BME280;51448;51.660;5.824;2023-09-30T02:14:16;102413.03;;;12.28;100.00
61119;BME280;51448;51.660;5.824;2023-09-30T02:16:44;102414.78;;;12.27;100.00
61119;BME280;51448;51.660;5.824;2023-09-30T02:19:12;102409.53;;;12.26;100.00
61119;BME280;51448;51.660;5.824;2023-09-30T02:21:40;102416.56;;;12.24;100.00
61119;BME280;51448;51.660;5.824;2023-09-30T02:24:08;102423.63;;;12.23;100.00
61119;BME280;51448;51.660;5.824;2023-09-30T02:26:35;102435.97;;;12.20;100.00
61119;BME280;51448;51.660;5.824;2023-09-30T02:29:05;102443.00;;;12.19;100.00
61119;BME280;51448;51.660;5.824;2023-09-30T02:31:35;102456.19;;;12.18;100.00
61119;BME280;51448;51.660;5.824;2023-09-30T02:34:02;102455.31;;;12.19;100.00
61119;BME280;51448;51.660;5.824;2023-09-30T02:36:30;102451.81;;;12.17;100.00
61119;BME280;51448;51.660;5.824;2023-09-30T02:38:58;102451.81;;;12.17;100.00
61119;BME280;51448;51.660;5.824;2023-09-30T02:41:25;102443.06;;;12.16;100.00
61119;BME280;51448;51.660;5.824;2023-09-30T02:43:53;102436.88;;;12.17;100.00
61119;BME280;51448;51.660;5.824;2023-09-30T02:46:20;102439.50;;;12.17;100.00
61119;BME280;51448;51.660;5.824;2023-09-30T02:48:48;102427.22;;;12.16;100.00
61119;BME280;51448;51.660;5.824;2023-09-30T02:51:15;102419.31;;;12.16;100.00
61119;BME280;51448;51.660;5.824;2023-09-30T02:53:43;102418.41;;;12.16;100.00
61119;BME280;51448;51.660;5.824;2023-09-30T02:56:11;102426.31;;;12.16;100.00
61119;BME280;51448;51.660;5.824;2023-09-30T02:58:38;102424.59;;;12.16;100.00
61119;BME280;51448;51.660;5.824;2023-09-30T03:01:07;102418.44;;;12.14;100.00
61119;BME280;51448;51.660;5.824;2023-09-30T03:03:40;102414.91;;;12.15;100.00
61119;BME280;51448;51.660;5.824;2023-09-30T03:06:07;102403.50;;;12.15;100.00
61119;BME280;51448;51.660;5.824;2023-09-30T03:08:35;102407.88;;;12.16;100.00
61119;BME280;51448;51.660;5.824;2023-09-30T03:11:03;102414.91;;;12.17;100.00
61119;BME280;51448;51.660;5.824;2023-09-30T03:13:32;102406.09;;;12.18;100.00
61119;BME280;51448;51.660;5.824;2023-09-30T03:15:59;102412.25;;;12.18;100.00
61119;BME280;51448;51.660;5.824;2023-09-30T03:18:28;102422.81;;;12.17;100.00
61119;BME280;51448;51.660;5.824;2023-09-30T03:21:00;102411.34;;;12.18;100.00
61119;BME280;51448;51.660;5.824;2023-09-30T03:23:28;102412.22;;;12.20;100.00
61119;BME280;51448;51.660;5.824;2023-09-30T03:25:58;102413.13;;;12.19;100.00
61119;BME280;51448;51.660;5.824;2023-09-30T03:28:26;102416.63;;;12.18;100.00
61119;BME280;51448;51.660;5.824;2023-09-30T03:30:54;102416.63;;;12.18;100.00
61119;BME280;51448;51.660;5.824;2023-09-30T03:33:24;102418.41;;;12.16;100.00
61119;BME280;51448;51.660;5.824;2023-09-30T03:35:51;102425.47;;;12.15;100.00
61119;BME280;51448;51.660;5.824;2023-09-30T03:38:19;102421.97;;;12.15;100.00
61119;BME280;51448;51.660;5.824;2023-09-30T03:40:47;102421.09;;;12.14;100.00
61119;BME280;51448;51.660;5.824;2023-09-30T03:43:16;102415.81;;;12.14;100.00
61119;BME280;51448;51.660;5.824;2023-09-30T03:45:44;102414.03;;;12.15;100.00
61119;BME280;51448;51.660;5.824;2023-09-30T03:48:12;102415.81;;;12.13;100.00
61119;BME280;51448;51.660;5.824;2023-09-30T03:50:40;102409.63;;;12.14;100.00
61119;BME280;51448;51.660;5.824;2023-09-30T03:53:08;102410.50;;;12.16;100.00
61119;BME280;51448;51.660;5.824;2023-09-30T03:55:36;102420.19;;;12.14;100.00
61119;BME280;51448;51.660;5.824;2023-09-30T03:58:04;102423.72;;;12.13;100.00
61119;BME280;51448;51.660;5.824;2023-09-30T04:00:32;102419.31;;;12.13;100.00
61119;BME280;51448;51.660;5.824;2023-09-30T04:02:59;102409.69;;;12.11;100.00
61119;BME280;51448;51.660;5.824;2023-09-30T04:05:28;102411.47;;;12.08;100.00
61119;BME280;51448;51.660;5.824;2023-09-30T04:08:03;102414.97;;;12.07;100.00
61119;BME280;51448;51.660;5.824;2023-09-30T04:10:32;102405.34;;;12.06;100.00
61119;BME280;51448;51.660;5.824;2023-09-30T04:12:59;102406.19;;;12.05;100.00
61119;BME280;51448;51.660;5.824;2023-09-30T04:15:27;102410.59;;;12.05;100.00
61119;BME280;51448;51.660;5.824;2023-09-30T04:17:54;102408.88;;;12.04;100.00
61119;BME280;51448;51.660;5.824;2023-09-30T04:20:22;102417.66;;;12.03;100.00
61119;BME280;51448;51.660;5.824;2023-09-30T04:22:54;102431.75;;;12.02;100.00
61119;BME280;51448;51.660;5.824;2023-09-30T04:25:25;102430.84;;;12.01;100.00
61119;BME280;51448;51.660;5.824;2023-09-30T04:27:53;102418.56;;;12.02;100.00
61119;BME280;51448;51.660;5.824;2023-09-30T04:30:21;102427.34;;;12.02;100.00
61119;BME280;51448;51.660;5.824;2023-09-30T04:32:49;102415.03;;;12.04;100.00
61119;BME280;51448;51.660;5.824;2023-09-30T04:35:17;102423.78;;;12.05;100.00
61119;BME280;51448;51.660;5.824;2023-09-30T04:37:45;102419.38;;;12.05;100.00
61119;BME280;51448;51.660;5.824;2023-09-30T04:40:12;102418.50;;;12.06;100.00
61119;BME280;51448;51.660;5.824;2023-09-30T04:42:43;102426.44;;;12.06;100.00
61119;BME280;51448;51.660;5.824;2023-09-30T04:45:12;102422.00;;;12.07;100.00
61119;BME280;51448;51.660;5.824;2023-09-30T04:47:44;102434.34;;;12.06;100.00
61119;BME280;51448;51.660;5.824;2023-09-30T04:50:12;102437.84;;;12.05;100.00
61119;BME280;51448;51.660;5.824;2023-09-30T04:52:43;102442.31;;;12.00;100.00
61119;BME280;51448;51.660;5.824;2023-09-30T04:55:12;102441.41;;;12.01;100.00
61119;BME280;51448;51.660;5.824;2023-09-30T04:57:47;102431.75;;;12.02;100.00
61119;BME280;51448;51.660;5.824;2023-09-30T05:00:17;102437.88;;;12.01;100.00
61119;BME280;51448;51.660;5.824;2023-09-30T05:02:49;102435.25;;;11.99;100.00
61119;BME280;51448;51.660;5.824;2023-09-30T05:05:16;102427.34;;;11.99;100.00
61119;BME280;51448;51.660;5.824;2023-09-30T05:07:44;102437.03;;;11.99;100.00
61119;BME280;51448;51.660;5.824;2023-09-30T05:10:14;102455.47;;;12.00;100.00
61119;BME280;51448;51.660;5.824;2023-09-30T05:12:43;102449.34;;;12.00;100.00
61119;BME280;51448;51.660;5.824;2023-09-30T05:15:15;102451.09;;;11.99;100.00
61119;BME280;51448;51.660;5.824;2023-09-30T05:17:45;102451.09;;;11.99;100.00
61119;BME280;51448;51.660;5.824;2023-09-30T05:20:15;102448.44;;;11.99;100.00
61119;BME280;51448;51.660;5.824;2023-09-30T05:22:47;102451.06;;;12.01;100.00
61119;BME280;51448;51.660;5.824;2023-09-30T05:25:17;102450.22;;;12.00;100.00
61119;BME280;51448;51.660;5.824;2023-09-30T05:27:46;102451.06;;;12.01;100.00
61119;BME280;51448;51.660;5.824;2023-09-30T05:30:17;102450.22;;;12.00;100.00
61119;BME280;51448;51.660;5.824;2023-09-30T05:32:47;102456.34;;;11.99;100.00
61119;BME280;51448;51.660;5.824;2023-09-30T05:35:14;102464.25;;;12.01;100.00
61119;BME280;51448;51.660;5.824;2023-09-30T05:37:45;102464.25;;;11.99;100.00
61119;BME280;51448;51.660;5.824;2023-09-30T05:40:13;102457.25;;;12.00;100.00
61119;BME280;51448;51.660;5.824;2023-09-30T05:42:56;102465.16;;;12.00;100.00
61119;BME280;51448;51.660;5.824;2023-09-30T05:45:27;102462.53;;;11.98;100.00
61119;BME280;51448;51.660;5.824;2023-09-30T05:47:58;102452.84;;;11.97;100.00
61119;BME280;51448;51.660;5.824;2023-09-30T05:50:30;102466.03;;;11.97;100.00
61119;BME280;51448;51.660;5.824;2023-09-30T05:52:58;102470.44;;;11.97;100.00
61119;BME280;51448;51.660;5.824;2023-09-30T05:55:26;102473.94;;;11.97;100.00
61119;BME280;51448;51.660;5.824;2023-09-30T05:57:54;102472.22;;;11.98;100.00
61119;BME280;51448;51.660;5.824;2023-09-30T06:00:23;102471.31;;;11.97;100.00
61119;BME280;51448;51.660;5.824;2023-09-30T06:02:57;102466.03;;;11.97;100.00
61119;BME280;51448;51.660;5.824;2023-09-30T06:05:26;102466.09;;;11.96;100.00
61119;BME280;51448;51.660;5.824;2023-09-30T06:07:54;102471.31;;;11.97;100.00
61119;BME280;51448;51.660;5.824;2023-09-30T06:10:22;102463.41;;;11.97;100.00
61119;BME280;51448;51.660;5.824;2023-09-30T06:12:51;102468.69;;;11.97;100.00
61119;BME280;51448;51.660;5.824;2023-09-30T06:15:24;102467.81;;;11.95;100.00
61119;BME280;51448;51.660;5.824;2023-09-30T06:17:56;102472.22;;;11.95;100.00
61119;BME280;51448;51.660;5.824;2023-09-30T06:20:26;102469.59;;;11.93;100.00
61119;BME280;51448;51.660;5.824;2023-09-30T06:22:55;102474.00;;;11.96;100.00
61119;BME280;51448;51.660;5.824;2023-09-30T06:25:25;102477.50;;;11.96;100.00
61119;BME280;51448;51.660;5.824;2023-09-30T06:27:53;102489.78;;;11.99;100.00
61119;BME280;51448;51.660;5.824;2023-09-30T06:30:25;102478.31;;;12.01;100.00
61119;BME280;51448;51.660;5.824;2023-09-30T06:32:59;102470.41;;;12.06;100.00
61119;BME280;51448;51.660;5.824;2023-09-30T06:35:28;102465.03;;;12.14;100.00
61119;BME280;51448;51.660;5.824;2023-09-30T06:38:04;102467.59;;;12.23;100.00
61119;BME280;51448;51.660;5.824;2023-09-30T06:40:34;102455.22;;;12.31;100.00
61119;BME280;51448;51.660;5.824;2023-09-30T06:43:06;102458.59;;;12.42;100.00
61119;BME280;51448;51.660;5.824;2023-09-30T06:45:35;102464.66;;;12.55;100.00
61119;BME280;51448;51.660;5.824;2023-09-30T06:48:10;102480.38;;;12.66;100.00
61119;BME280;51448;51.660;5.824;2023-09-30T06:50:46;102480.25;;;12.80;100.00
61119;BME280;51448;51.660;5.824;2023-09-30T06:53:16;102483.59;;;12.93;100.00
61119;BME280;51448;51.660;5.824;2023-09-30T06:55:45;102477.25;;;13.09;100.00
61119;BME280;51448;51.660;5.824;2023-09-30T06:58:13;102485.03;;;13.21;100.00
61119;BME280;51448;51.660;5.824;2023-09-30T07:00:41;102492.81;;;13.35;100.00
61119;BME280;51448;51.660;5.824;2023-09-30T07:03:09;102497.00;;;13.52;100.00
61119;BME280;51448;51.660;5.824;2023-09-30T07:05:37;102509.13;;;13.66;100.00
61119;BME280;51448;51.660;5.824;2023-09-30T07:08:04;102515.16;;;13.75;100.00
61119;BME280;51448;51.660;5.824;2023-09-30T07:10:32;102516.03;;;13.77;100.00
61119;BME280;51448;51.660;5.824;2023-09-30T07:13:02;102516.00;;;13.78;100.00
61119;BME280;51448;51.660;5.824;2023-09-30T07:15:31;102529.19;;;13.80;100.00
61119;BME280;51448;51.660;5.824;2023-09-30T07:17:58;102519.44;;;13.82;100.00
61119;BME280;51448;51.660;5.824;2023-09-30T07:20:26;102529.16;;;13.83;100.00
61119;BME280;51448;51.660;5.824;2023-09-30T07:22:55;102529.09;;;13.86;100.00
61119;BME280;51448;51.660;5.824;2023-09-30T07:25:38;102531.69;;;13.91;100.00
61119;BME280;51448;51.660;5.824;2023-09-30T07:28:05;102524.53;;;13.97;100.00
61119;BME280;51448;51.660;5.824;2023-09-30T07:30:39;102530.66;;;14.01;100.00
61119;BME280;51448;51.660;5.824;2023-09-30T07:33:07;102533.13;;;14.10;100.00
61119;BME280;51448;51.660;5.824;2023-09-30T07:35:35;102535.78;;;14.12;100.00
61119;BME280;51448;51.660;5.824;2023-09-30T07:38:03;102551.56;;;14.15;100.00
61119;BME280;51448;51.660;5.824;2023-09-30T07:40:31;102557.69;;;14.20;100.00
61119;BME280;51448;51.660;5.824;2023-09-30T07:43:02;102554.09;;;14.24;100.00
61119;BME280;51448;51.660;5.824;2023-09-30T07:45:29;102556.75;;;14.24;100.00
61119;BME280;51448;51.660;5.824;2023-09-30T07:47:57;102562.03;;;14.25;100.00
61119;BME280;51448;51.660;5.824;2023-09-30T07:50:32;102570.81;;;14.26;100.00
61119;BME280;51448;51.660;5.824;2023-09-30T07:53:01;102559.41;;;14.24;100.00
61119;BME280;51448;51.660;5.824;2023-09-30T07:55:28;102576.16;;;14.23;100.00
61119;BME280;51448;51.660;5.824;2023-09-30T07:57:56;102571.78;;;14.22;100.00
61119;BME280;51448;51.660;5.824;2023-09-30T08:00:27;102579.63;;;14.28;100.00
61119;BME280;51448;51.660;5.824;2023-09-30T08:02:54;102571.56;;;14.36;100.00
61119;BME280;51448;51.660;5.824;2023-09-30T08:05:22;102574.00;;;14.48;100.00
61119;BME280;51448;51.660;5.824;2023-09-30T08:07:50;102571.13;;;14.62;100.00
61119;BME280;51448;51.660;5.824;2023-09-30T08:10:17;102557.69;;;14.74;100.00
61119;BME280;51448;51.660;5.824;2023-09-30T08:12:45;102563.66;;;14.87;100.00
61119;BME280;51448;51.660;5.824;2023-09-30T08:15:16;102557.22;;;14.99;100.00
61119;BME280;51448;51.660;5.824;2023-09-30T08:17:44;102556.09;;;15.12;100.00
61119;BME280;51448;51.660;5.824;2023-09-30T08:20:11;102560.28;;;15.24;100.00
61119;BME280;51448;51.660;5.824;2023-09-30T08:22:41;102560.06;;;15.35;100.00
61119;BME280;51448;51.660;5.824;2023-09-30T08:25:08;102564.19;;;15.48;100.00
61119;BME280;51448;51.660;5.824;2023-09-30T08:27:37;102556.72;;;15.67;100.00
61119;BME280;51448;51.660;5.824;2023-09-30T08:30:06;102564.25;;;15.87;100.00
61119;BME280;51448;51.660;5.824;2023-09-30T08:32:35;102554.16;;;16.03;100.00
61119;BME280;51448;51.660;5.824;2023-09-30T08:35:03;102545.78;;;16.20;100.00
61119;BME280;51448;51.660;5.824;2023-09-30T08:37:31;102542.00;;;16.30;100.00
61119;BME280;51448;51.660;5.824;2023-09-30T08:40:00;102539.03;;;16.42;100.00
61119;BME280;51448;51.660;5.824;2023-09-30T08:42:27;102537.81;;;16.56;100.00
61119;BME280;51448;51.660;5.824;2023-09-30T08:45:01;102545.50;;;16.66;100.00
61119;BME280;51448;51.660;5.824;2023-09-30T08:47:31;102549.69;;;16.75;100.00
61119;BME280;51448;51.660;5.824;2023-09-30T08:50:02;102545.13;;;16.82;100.00
61119;BME280;51448;51.660;5.824;2023-09-30T08:52:38;102549.31;;;16.91;100.00
61119;BME280;51448;51.660;5.824;2023-09-30T08:55:08;102542.91;;;16.98;100.00
61119;BME280;51448;51.660;5.824;2023-09-30T08:57:38;102541.75;;;17.08;100.00
61119;BME280;51448;51.660;5.824;2023-09-30T09:00:12;102541.50;;;17.17;100.00
61119;BME280;51448;51.660;5.824;2023-09-30T09:05:14;102545.69;;;18.14;100.00
61119;BME280;51448;51.660;5.824;2023-09-30T09:07:42;102549.47;;;19.10;100.00
61119;BME280;51448;51.660;5.824;2023-09-30T09:10:11;102545.09;;;20.02;100.00
61119;BME280;51448;51.660;5.824;2023-09-30T09:12:42;102560.50;;;20.80;100.00
61119;BME280;51448;51.660;5.824;2023-09-30T09:13:27;102562.03;;;21.06;100.00
61119;BME280;51448;51.660;5.824;2023-09-30T09:14:00;102560.25;;;21.26;100.00
61119;BME280;51448;51.660;5.824;2023-09-30T09:14:37;102559.38;;;21.46;100.00
61119;BME280;51448;51.660;5.824;2023-09-30T09:15:24;102568.19;;;21.67;100.00
61119;BME280;51448;51.660;5.824;2023-09-30T09:16:09;102557.44;;;21.86;100.00
61119;BME280;51448;51.660;5.824;2023-09-30T09:16:54;102556.53;;;22.04;99.71
61119;BME280;51448;51.660;5.824;2023-09-30T09:17:41;102557.44;;;22.22;98.64
61119;BME280;51448;51.660;5.824;2023-09-30T09:18:31;102553.94;;;22.39;97.56
61119;BME280;51448;51.660;5.824;2023-09-30T09:19:13;102562.25;;;22.52;96.83
61119;BME280;51448;51.660;5.824;2023-09-30T09:19:59;102561.53;;;22.66;95.24
61119;BME280;51448;51.660;5.824;2023-09-30T09:20:32;102565.63;;;22.73;94.83
61119;BME280;51448;51.660;5.824;2023-09-30T09:21:20;102572.06;;;22.86;94.05
61119;BME280;51448;51.660;5.824;2023-09-30T09:36:02;102586.13;;;23.09;97.96
61119;BME280;51448;51.660;5.824;2023-09-30T09:37:21;102587.94;;;23.08;94.28
61119;BME280;51448;51.660;5.824;2023-09-30T09:40:22;102593.94;;;23.14;94.89
61119;BME280;51448;51.660;5.824;2023-09-30T09:42:51;102607.13;;;23.18;95.46
61119;BME280;51448;51.660;5.824;2023-09-30T09:45:25;102613.78;;;23.27;95.17
61119;BME280;51448;51.660;5.824;2023-09-30T09:47:54;102616.00;;;23.36;95.27
61119;BME280;51448;51.660;5.824;2023-09-30T09:50:22;102619.03;;;23.46;94.58
61119;BME280;51448;51.660;5.824;2023-09-30T09:52:52;102615.00;;;23.55;94.24
61119;BME280;51448;51.660;5.824;2023-09-30T09:55:23;102609.09;;;23.64;93.46
61119;BME280;51448;51.660;5.824;2023-09-30T09:57:51;102598.81;;;23.72;92.98
61119;BME280;51448;51.660;5.824;2023-09-30T10:00:21;102613.56;;;23.81;92.08
61119;BME280;51448;51.660;5.824;2023-09-30T10:02:51;102596.16;;;23.88;91.76
61119;BME280;51448;51.660;5.824;2023-09-30T10:05:21;102598.41;;;23.96;90.88
61119;BME280;51448;51.660;5.824;2023-09-30T10:07:53;102608.03;;;24.00;90.50
61119;BME280;51448;51.660;5.824;2023-09-30T10:10:24;102605.84;;;24.06;89.46
61119;BME280;51448;51.660;5.824;2023-09-30T10:12:52;102615.47;;;24.10;88.77
61119;BME280;51448;51.660;5.824;2023-09-30T10:24:55;102618.31;;;24.39;84.42
61119;BME280;51448;51.660;5.824;2023-09-30T10:30:11;102605.81;;;24.54;83.73
61119;BME280;51448;51.660;5.824;2023-09-30T10:35:44;102589.53;;;24.72;83.01
61119;BME280;51448;51.660;5.824;2023-09-30T10:40:58;102595.59;;;24.89;82.18
61119;BME280;51448;51.660;5.824;2023-09-30T10:43:30;102575.34;;;24.98;81.12
61119;BME280;51448;51.660;5.824;2023-09-30T10:46:00;102574.84;;;25.06;80.67
61119;BME280;51448;51.660;5.824;2023-09-30T10:51:19;102582.03;;;25.21;80.00
61119;BME280;51448;51.660;5.824;2023-09-30T10:53:53;102580.66;;;25.28;79.15
61119;BME280;51448;51.660;5.824;2023-09-30T10:56:33;102577.41;;;25.38;78.64
61119;BME280;51448;51.660;5.824;2023-09-30T10:59:01;102573.25;;;25.46;78.73
61119;BME280;51448;51.660;5.824;2023-09-30T11:01:34;102571.69;;;25.57;77.71
61119;BME280;51448;51.660;5.824;2023-09-30T11:04:03;102569.19;;;25.68;77.69
61119;BME280;51448;51.660;5.824;2023-09-30T11:06:34;102556.94;;;25.77;77.14
61119;BME280;51448;51.660;5.824;2023-09-30T11:09:02;102566.06;;;25.88;76.76
61119;BME280;51448;51.660;5.824;2023-09-30T11:14:23;102567.66;;;26.05;75.50
61119;BME280;51448;51.660;5.824;2023-09-30T11:16:58;102565.41;;;26.12;74.85
61119;BME280;51448;51.660;5.824;2023-09-30T11:19:35;102570.47;;;26.17;73.56
61119;BME280;51448;51.660;5.824;2023-09-30T11:22:07;102566.06;;;26.16;73.34
61119;BME280;51448;51.660;5.824;2023-09-30T11:24:35;102564.69;;;26.23;72.73
61119;BME280;51448;51.660;5.824;2023-09-30T11:27:04;102566.19;;;26.27;72.31
61119;BME280;51448;51.660;5.824;2023-09-30T11:47:54;102538.00;;;23.06;66.17
61119;BME280;51448;51.660;5.824;2023-09-30T11:51:47;102517.78;;;22.48;68.64
61119;BME280;51448;51.660;5.824;2023-09-30T11:54:15;102513.69;;;22.23;69.98
61119;BME280;51448;51.660;5.824;2023-09-30T11:56:43;102517.31;;;22.03;70.04
61119;BME280;51448;51.660;5.824;2023-09-30T11:59:12;102526.50;;;21.80;71.12
61119;BME280;51448;51.660;5.824;2023-09-30T12:01:40;102520.22;;;21.62;71.38
61119;BME280;51448;51.660;5.824;2023-09-30T12:04:08;102531.34;;;21.53;71.41
61119;BME280;51448;51.660;5.824;2023-09-30T12:06:36;102532.59;;;21.46;71.99
61119;BME280;51448;51.660;5.824;2023-09-30T12:09:05;102532.19;;;21.35;72.81
61119;BME280;51448;51.660;5.824;2023-09-30T12:11:39;102542.53;;;21.23;72.70
61119;BME280;51448;51.660;5.824;2023-09-30T12:14:07;102544.00;;;21.10;72.98
61119;BME280;51448;51.660;5.824;2023-09-30T12:16:35;102557.88;;;20.99;72.80
61119;BME280;51448;51.660;5.824;2023-09-30T12:19:02;102543.19;;;20.89;73.65
61119;BME280;51448;51.660;5.824;2023-09-30T12:21:30;102547.94;;;20.82;73.92
61119;BME280;51448;51.660;5.824;2023-09-30T12:23:59;102554.47;;;20.75;73.36
61119;BME280;51448;51.660;5.824;2023-09-30T12:26:28;102545.47;;;20.78;73.54
61119;BME280;51448;51.660;5.824;2023-09-30T12:28:57;102532.97;;;20.78;72.39
61119;BME280;51448;51.660;5.824;2023-09-30T12:31:25;102534.03;;;20.74;73.57
61119;BME280;51448;51.660;5.824;2023-09-30T12:33:53;102533.19;;;20.74;73.72
61119;BME280;51448;51.660;5.824;2023-09-30T12:36:22;102517.13;;;20.74;73.91
61119;BME280;51448;51.660;5.824;2023-09-30T12:38:49;102516.19;;;20.75;74.33
61119;BME280;51448;51.660;5.824;2023-09-30T12:41:17;102506.97;;;20.82;73.42
61119;BME280;51448;51.660;5.824;2023-09-30T12:43:46;102502.22;;;20.88;73.66
61119;BME280;51448;51.660;5.824;2023-09-30T12:46:14;102499.09;;;20.98;73.49
61119;BME280;51448;51.660;5.824;2023-09-30T12:48:42;102484.31;;;21.09;73.09
61119;BME280;51448;51.660;5.824;2023-09-30T12:51:09;102482.88;;;21.21;72.80
61119;BME280;51448;51.660;5.824;2023-09-30T12:53:37;102485.53;;;21.21;72.79
61119;BME280;51448;51.660;5.824;2023-09-30T12:56:04;102490.09;;;21.19;72.25
61119;BME280;51448;51.660;5.824;2023-09-30T12:58:32;102492.78;;;21.19;71.69
61119;BME280;51448;51.660;5.824;2023-09-30T13:01:00;102488.34;;;21.18;71.51
61119;BME280;51448;51.660;5.824;2023-09-30T13:03:48;102490.31;;;21.15;70.89
61119;BME280;51448;51.660;5.824;2023-09-30T13:06:16;102492.25;;;21.11;71.21
61119;BME280;51448;51.660;5.824;2023-09-30T13:08:44;102487.03;;;21.08;71.24
61119;BME280;51448;51.660;5.824;2023-09-30T13:11:13;102490.66;;;21.07;70.80
61119;BME280;51448;51.660;5.824;2023-09-30T13:13:41;102483.84;;;21.00;71.03
61119;BME280;51448;51.660;5.824;2023-09-30T13:16:11;102481.56;;;20.92;70.63
61119;BME280;51448;51.660;5.824;2023-09-30T13:18:39;102478.25;;;20.85;70.34
61119;BME280;51448;51.660;5.824;2023-09-30T13:21:07;102483.03;;;20.79;70.60
61119;BME280;51448;51.660;5.824;2023-09-30T13:23:35;102486.84;;;20.73;71.29
61119;BME280;51448;51.660;5.824;2023-09-30T13:26:02;102487.09;;;20.67;71.63
61119;BME280;51448;51.660;5.824;2023-09-30T13:28:30;102487.38;;;20.61;72.06